Amstenrade, Netherlands
Current Conditions -  °F | °C
As of 2:25 PM on Monday 22 Dec 2014 (Local Time) from EHBK Reporting Station
Overcast Overcast  
Wind Chill: 50°   Ceiling: 1000
Heat Index: 50°   Visibility: 6mi
Dew Point: 46°   Wind: 25mph
Humidity: 87%   Direction: 230°SW
Pressure: 30.09"   Gusts: NA
Location:  50.94°N, 5.92°E
Report Text: EHBK 221325Z AUTO 23022KT 9999 OVC010 10/08 Q1019 TEMPO 7000-DZRA
Loading
Personal Weather Stations






























Interactive Weather Map New forecast layout! Learn more

10-Day Weather Forecast

Advertisements
Track Severe Weather on mobile